Birmingham, Illinois
Current Conditions -  °F | °C
As of 8:15 PM on Saturday 22 Nov 2014 (Local Time) from KMQB Reporting Station
Scattered Clouds Scattered Clouds  
Wind Chill: 11°   Ceiling: Unl
Heat Index: 11°   Visibility: 10mi
Dew Point:   Wind: 15mph
Humidity: 86%   Direction: 180°S
Pressure: 29.85"   Gusts: NA
Location:  40.2814°N, 90.8526°W
Report Text: KMQB 230215Z AUTO 18013KT 10SM SCT070 11/08 A2985 RMK AO2 T01050082
Loading
Personal Weather Stations






























Interactive Weather Map New forecast layout! Learn more

10-Day Weather Forecast

Advertisements
Track Severe Weather on mobile